Flight Track Log - Related Links

Times and Time Zones

All times are in EDT time to prevent confusion due to time zone crossing. See the G52668 flight status page for this flight to view local times or setup timezone preferences in your user account.

Time Position Orientation Groundspeed Altitude Reporting Facility
EDT Latitude Longitude Course Direction KTS MPH feet Rate Location/Type
Tue 02:26:00 AM 27.6141 119.5201 356° North  Level Estimated
Tue 02:27:00 AM 27.7157 119.5113 356° North  Level Estimated
Tue 02:28:00 AM 27.8173 119.5025 356° North  Level Estimated
Tue 02:29:00 AM 27.9189 119.4937 356° North  Level Estimated
Tue 02:30:00 AM 28.0205 119.4848 356° North  Level Estimated
Tue 02:31:00 AM 28.1220 119.4760 356° North  Level Estimated
Tue 02:32:00 AM 28.2236 119.4671 356° North  Level Estimated
Tue 02:33:00 AM 28.3252 119.4582 356° North  Level Estimated
Tue 02:34:00 AM 28.4268 119.4493 356° North  Level Estimated
Tue 02:35:00 AM 28.5284 119.4403 356° North  Level Estimated
Tue 02:36:00 AM 28.6300 119.4314 356° North  Level Estimated
Tue 02:37:00 AM 28.7315 119.4224 356° North  Level Estimated
Tue 02:38:00 AM 28.8331 119.4134 356° North  Level Estimated
Tue 02:39:00 AM 28.9347 119.4044 356° North  Level Estimated
Tue 02:40:00 AM 29.0363 119.3954 356° North  Level Estimated
Tue 02:41:00 AM 29.1378 119.3864 356° North  Level Estimated
Tue 02:42:00 AM 29.2394 119.3773 356° North  Level Estimated
Tue 02:43:00 AM 29.3410 119.3682 356° North  Level Estimated
Tue 02:44:00 AM 29.4426 119.3591 356° North  Level Estimated
Tue 02:45:00 AM 29.5441 119.3500 356° North  Level Estimated
Tue 02:46:00 AM 29.6457 119.3409 356° North  Level Estimated
Tue 02:47:00 AM 29.7473 119.3317 356° North  Level Estimated
Tue 02:48:00 AM 29.8489 119.3226 356° North  Level Estimated
Tue 02:49:00 AM 29.9505 119.3134 356° North  Level Estimated
Tue 02:50:00 AM 30.0520 119.3042 356° North  Level Estimated
Tue 02:51:00 AM 30.1536 119.2950 356° North  Level Estimated
Tue 02:52:00 AM 30.2552 119.2857 356° North  Level Estimated
Tue 02:53:00 AM 30.3567 119.2765 356° North  Level Estimated
Tue 02:54:00 AM 30.4583 119.2672 355° North  Level Estimated
Tue 02:55:00 AM 30.5599 119.2579 355° North  Level Estimated
Tue 02:56:00 AM 30.6614 119.2486 355° North  Level Estimated
Tue 02:57:00 AM 30.7630 119.2392 355° North  Level Estimated
Tue 02:58:00 AM 30.8646 119.2299 355° North  Level Estimated
Tue 02:59:00 AM 30.9661 119.2205 355° North  Level Estimated
Tue 03:00:00 AM 31.0677 119.2111 355° North  Level Estimated
Tue 03:01:00 AM 31.1693 119.2017 355° North  Level Estimated
Tue 03:02:00 AM 31.2708 119.1922 355° North  Level Estimated
Tue 03:03:00 AM 31.3724 119.1828 355° North  Level Estimated
Tue 03:04:00 AM 31.4739 119.1733 355° North  Level Estimated
Tue 03:05:00 AM 31.5755 119.1638 355° North  Level Estimated
Tue 03:06:00 AM 31.6771 119.1543 355° North  Level Estimated
Tue 03:07:00 AM 31.7786 119.1447 355° North  Level Estimated
Tue 03:08:00 AM 31.8802 119.1352 355° North  Level Estimated
Tue 03:09:00 AM 31.9818 119.1256 355° North  Level Estimated
Tue 03:10:00 AM 32.0833 119.1160 355° North  Level Estimated
Tue 03:11:00 AM 32.1849 119.1064 355° North  Level Estimated
Tue 03:12:00 AM 32.2864 119.0967 355° North  Level Estimated
Tue 03:13:00 AM 32.3880 119.0870 355° North  Level Estimated
Tue 03:14:00 AM 32.4895 119.0773 355° North  Level Estimated
Tue 03:15:00 AM 32.5911 119.0676 355° North  Level Estimated
Tue 03:16:00 AM 32.6926 119.0579 355° North  Level Estimated
Tue 03:17:00 AM 32.7942 119.0481 355° North  Level Estimated
Tue 03:18:00 AM 32.8957 119.0384 355° North  Level Estimated
Tue 03:19:00 AM 32.9973 119.0286 355° North  Level Estimated
Tue 03:20:00 AM 33.0989 119.0187 355° North  Level Estimated
Tue 03:21:00 AM 33.2004 119.0089 355° North  Level Estimated
Tue 03:22:00 AM 33.3020 118.9990 355° North  Level Estimated
Tue 03:23:00 AM 33.4035 118.9891 355° North  Level Estimated
Tue 03:24:00 AM 33.5051 118.9792 355° North  Level Estimated
Tue 03:25:00 AM 33.6066 118.9693 355° North  Level Estimated
Tue 03:26:00 AM 33.7081 118.9593 355° North  Level Estimated
Tue 03:27:00 AM 33.8097 118.9493 355° North  Level Estimated
Tue 03:28:00 AM 33.9112 118.9393 355° North  Level Estimated
Tue 03:29:00 AM 34.0128 118.9293 355° North  Level Estimated
Tue 03:30:00 AM 34.1143 118.9192 355° North  Level Estimated
Tue 03:31:00 AM 34.2159 118.9091 355° North  Level Estimated
Tue 03:32:00 AM 34.3174 118.8990 355° North  Level Estimated
Tue 03:33:00 AM 34.4189 118.8889 355° North  Level Estimated
Tue 03:34:00 AM 34.5205 118.8787 355° North  Level Estimated
Tue 03:35:00 AM 34.5717 118.8736 355° North  Level Estimated
Tue 03:36:00 AM 34.5717 118.8736 North  Level Estimated
Tue 03:37:00 AM 34.5717 118.8736 North  Level Estimated
Tue 03:38:00 AM 34.5717 118.8736 North  Level Estimated
Tue 03:39:00 AM 34.5717 118.8736 North  Level Estimated
Tue 03:40:00 AM 34.5717 118.8736 North  Level Estimated
Tue 03:41:00 AM 34.5717 118.8736 North  Level Estimated
Tue 03:42:00 AM 34.5717 118.8736 North  Level Estimated
Tue 03:43:00 AM 34.5717 118.8736 North  Level Estimated
Tue 03:44:00 AM 34.5717 118.8736 North  Level Estimated
Tue 03:45:00 AM 34.5717 118.8736 North  Level Estimated
Tue 03:46:00 AM 34.5717 118.8736 North  Level Estimated
Tue 03:47:00 AM 34.5717 118.8736 North  Level Estimated
Tue 03:48:00 AM 34.5717 118.8736 North  Level Estimated
Tue 03:49:00 AM 34.5717 118.8736 North  Level Estimated
Tue 03:50:00 AM 34.5717 118.8736 North  Level Estimated
Tue 03:51:00 AM 34.5717 118.8736 North  Level Estimated
Tue 03:52:00 AM 34.5717 118.8736 North  Level Estimated
Tue 03:53:00 AM 34.5717 118.8736 North  Level Estimated
Tue 03:54:00 AM 34.5717 118.8736 North  Level Estimated
Tue 03:55:00 AM 34.5717 118.8736 North  Level Estimated
Tue 03:56:00 AM 34.5717 118.8736 North  Level Estimated
Tue 03:57:00 AM 34.5717 118.8736 North  Level Estimated
Tue 03:58:00 AM 34.5717 118.8736 North  Level Estimated
Tue 03:59:00 AM 34.5717 118.8736 North  Level Estimated
Tue 04:00:00 AM 34.5717 118.8736 North  Level Estimated

Login

Don't have an account? Register now (free) for customized features, flight alerts, and more!